Joseph, Oregon
Current Conditions -  °F | °C
As of 5:35 PM on Friday 28 Nov 2014 (Local Time) from KLGD Reporting Station
Few Clouds Few Clouds  
Wind Chill: 52°   Ceiling: Unl
Heat Index: 52°   Visibility: 10mi
Dew Point: 30°   Wind: 10mph
Humidity: 44%   Direction: 170°S
Pressure: 29.48"   Gusts: 20mph
Location:  45.35°N, 117.23°W
Report Text: KLGD 290135Z AUTO 17009G17KT 10SM FEW070 11/M01 A2948 RMK AO1
Loading
Personal Weather Stations






























Interactive Weather Map New forecast layout! Learn more

10-Day Weather Forecast

Advertisements
Track Severe Weather on mobile